sensor_id;sensor_type;location;lat;lon;timestamp;pressure;altitude;pressure_sealevel;temperature;humidity
6435;BME280;3250;42.694;23.278;2023-02-28T00:02:17;95259.94;;;8.58;94.34
6435;BME280;3250;42.694;23.278;2023-02-28T00:04:43;95275.84;;;8.57;94.54
6435;BME280;3250;42.694;23.278;2023-02-28T00:07:08;95267.81;;;8.58;94.28
6435;BME280;3250;42.694;23.278;2023-02-28T00:09:34;95292.06;;;8.60;93.39
6435;BME280;3250;42.694;23.278;2023-02-28T00:12:01;95292.19;;;8.52;94.12
6435;BME280;3250;42.694;23.278;2023-02-28T00:14:38;95285.00;;;8.61;94.23
6435;BME280;3250;42.694;23.278;2023-02-28T00:17:04;95287.50;;;8.69;93.69
6435;BME280;3250;42.694;23.278;2023-02-28T00:19:29;95298.84;;;8.76;94.06
6435;BME280;3250;42.694;23.278;2023-02-28T00:21:54;95304.16;;;8.83;93.66
6435;BME280;3250;42.694;23.278;2023-02-28T00:24:20;95306.19;;;8.81;92.97
6435;BME280;3250;42.694;23.278;2023-02-28T00:26:45;95307.19;;;8.80;93.23
6435;BME280;3250;42.694;23.278;2023-02-28T00:29:11;95315.69;;;8.82;93.45
6435;BME280;3250;42.694;23.278;2023-02-28T00:31:36;95310.31;;;8.90;93.03
6435;BME280;3250;42.694;23.278;2023-02-28T00:34:02;95304.22;;;8.89;92.54
6435;BME280;3250;42.694;23.278;2023-02-28T00:36:27;95300.78;;;8.89;92.00
6435;BME280;3250;42.694;23.278;2023-02-28T00:38:52;95293.88;;;8.81;92.55
6435;BME280;3250;42.694;23.278;2023-02-28T00:41:18;95310.09;;;8.91;92.52
6435;BME280;3250;42.694;23.278;2023-02-28T00:43:43;95302.66;;;8.95;93.09
6435;BME280;3250;42.694;23.278;2023-02-28T00:46:09;95302.22;;;8.91;92.75
6435;BME280;3250;42.694;23.278;2023-02-28T00:48:34;95308.50;;;8.90;92.90
6435;BME280;3250;42.694;23.278;2023-02-28T00:51:00;95298.53;;;8.86;92.01
6435;BME280;3250;42.694;23.278;2023-02-28T00:53:26;95308.16;;;8.79;92.74
6435;BME280;3250;42.694;23.278;2023-02-28T00:55:51;95294.31;;;8.63;92.51
6435;BME280;3250;42.694;23.278;2023-02-28T00:58:17;95291.69;;;8.63;92.49
6435;BME280;3250;42.694;23.278;2023-02-28T01:00:42;95284.75;;;8.56;92.19
6435;BME280;3250;42.694;23.278;2023-02-28T01:03:08;95289.44;;;8.60;92.10
6435;BME280;3250;42.694;23.278;2023-02-28T01:05:33;95305.41;;;8.65;92.16
6435;BME280;3250;42.694;23.278;2023-02-28T01:07:58;95284.50;;;8.51;91.87
6435;BME280;3250;42.694;23.278;2023-02-28T01:10:25;95272.31;;;8.43;91.87
6435;BME280;3250;42.694;23.278;2023-02-28T01:12:50;95283.81;;;8.42;91.86
6435;BME280;3250;42.694;23.278;2023-02-28T01:15:16;95278.66;;;8.34;91.19
6435;BME280;3250;42.694;23.278;2023-02-28T01:17:41;95302.44;;;8.47;91.51
6435;BME280;3250;42.694;23.278;2023-02-28T01:20:07;95300.16;;;8.44;91.36
6435;BME280;3250;42.694;23.278;2023-02-28T01:22:34;95297.09;;;8.41;90.37
6435;BME280;3250;42.694;23.278;2023-02-28T01:25:00;95293.66;;;8.40;89.69
6435;BME280;3250;42.694;23.278;2023-02-28T01:27:25;95301.53;;;8.40;89.80
6435;BME280;3250;42.694;23.278;2023-02-28T01:29:51;95295.69;;;8.38;89.41
6435;BME280;3250;42.694;23.278;2023-02-28T01:32:17;95281.16;;;8.21;89.85
6435;BME280;3250;42.694;23.278;2023-02-28T01:34:42;95290.44;;;8.23;90.22
6435;BME280;3250;42.694;23.278;2023-02-28T01:37:08;95292.81;;;8.18;90.30
6435;BME280;3250;42.694;23.278;2023-02-28T01:39:33;95281.63;;;8.10;90.41
6435;BME280;3250;42.694;23.278;2023-02-28T01:41:58;95294.63;;;8.18;89.96
6435;BME280;3250;42.694;23.278;2023-02-28T01:47:32;95295.00;;;8.00;90.68
6435;BME280;3250;42.694;23.278;2023-02-28T01:50:02;95295.09;;;8.07;90.70
6435;BME280;3250;42.694;23.278;2023-02-28T01:52:30;95292.28;;;8.08;91.21
6435;BME280;3250;42.694;23.278;2023-02-28T01:54:58;95305.56;;;8.07;91.03
6435;BME280;3250;42.694;23.278;2023-02-28T01:57:31;95299.69;;;8.05;90.32
6435;BME280;3250;42.694;23.278;2023-02-28T02:00:10;95304.69;;;8.00;90.83
6435;BME280;3250;42.694;23.278;2023-02-28T02:02:38;95293.50;;;7.91;90.76
6435;BME280;3250;42.694;23.278;2023-02-28T02:05:09;95275.53;;;7.73;91.52
6435;BME280;3250;42.694;23.278;2023-02-28T02:07:40;95298.56;;;7.92;91.50
6435;BME280;3250;42.694;23.278;2023-02-28T02:10:18;95293.94;;;7.94;91.13
6435;BME280;3250;42.694;23.278;2023-02-28T02:13:24;95290.69;;;7.92;91.35
6435;BME280;3250;42.694;23.278;2023-02-28T02:16:23;95286.69;;;7.96;91.65
6435;BME280;3250;42.694;23.278;2023-02-28T02:38:29;95287.34;;;7.84;92.54
6435;BME280;3250;42.694;23.278;2023-02-28T02:43:36;95297.56;;;7.93;92.33
6435;BME280;3250;42.694;23.278;2023-02-28T02:46:07;95307.41;;;7.91;92.87
6435;BME280;3250;42.694;23.278;2023-02-28T02:48:36;95306.13;;;7.87;93.14
6435;BME280;3250;42.694;23.278;2023-02-28T02:51:06;95296.75;;;7.93;92.55
6435;BME280;3250;42.694;23.278;2023-02-28T02:53:42;95283.56;;;7.86;92.35
6435;BME280;3250;42.694;23.278;2023-02-28T02:56:10;95298.81;;;7.97;92.64
6435;BME280;3250;42.694;23.278;2023-02-28T02:58:40;95306.13;;;8.02;92.09
6435;BME280;3250;42.694;23.278;2023-02-28T03:01:10;95306.84;;;7.96;91.87
6435;BME280;3250;42.694;23.278;2023-02-28T03:03:37;95281.66;;;7.80;92.22
6435;BME280;3250;42.694;23.278;2023-02-28T03:06:03;95282.94;;;7.84;91.84
6435;BME280;3250;42.694;23.278;2023-02-28T03:08:34;95315.72;;;7.95;91.53
6435;BME280;3250;42.694;23.278;2023-02-28T03:11:05;95306.84;;;7.96;92.11
6435;BME280;3250;42.694;23.278;2023-02-28T03:24:48;95340.94;;;7.96;92.64
6435;BME280;3250;42.694;23.278;2023-02-28T03:27:18;95319.16;;;7.81;91.90
6435;BME280;3250;42.694;23.278;2023-02-28T03:29:51;95335.69;;;7.96;91.86
6435;BME280;3250;42.694;23.278;2023-02-28T03:32:29;95340.75;;;7.97;92.13
6435;BME280;3250;42.694;23.278;2023-02-28T03:35:26;95347.78;;;7.97;92.39
6435;BME280;3250;42.694;23.278;2023-02-28T03:38:19;95346.00;;;7.97;92.13
6435;BME280;3250;42.694;23.278;2023-02-28T03:40:51;95343.75;;;7.94;92.49
6435;BME280;3250;42.694;23.278;2023-02-28T03:43:26;95324.06;;;7.84;92.31
6435;BME280;3250;42.694;23.278;2023-02-28T03:45:54;95351.88;;;8.00;92.96
6435;BME280;3250;42.694;23.278;2023-02-28T03:48:30;95351.22;;;7.97;92.53
6435;BME280;3250;42.694;23.278;2023-02-28T03:50:58;95353.84;;;7.97;92.88
6435;BME280;3250;42.694;23.278;2023-02-28T03:53:28;95358.56;;;8.02;92.89
6435;BME280;3250;42.694;23.278;2023-02-28T03:55:59;95361.00;;;8.04;92.53
6435;BME280;3250;42.694;23.278;2023-02-28T04:01:14;95361.00;;;8.04;92.95
6435;BME280;3250;42.694;23.278;2023-02-28T04:03:40;95357.47;;;7.96;92.75
6435;BME280;3250;42.694;23.278;2023-02-28T04:06:08;95364.06;;;8.07;93.03
6435;BME280;3250;42.694;23.278;2023-02-28T04:08:39;95352.41;;;8.10;92.69
6435;BME280;3250;42.694;23.278;2023-02-28T04:11:13;95358.47;;;8.10;92.52
6435;BME280;3250;42.694;23.278;2023-02-28T04:13:41;95350.31;;;8.05;92.49
6435;BME280;3250;42.694;23.278;2023-02-28T04:16:07;95358.66;;;8.09;92.71
6435;BME280;3250;42.694;23.278;2023-02-28T04:18:41;95355.22;;;8.08;92.40
6435;BME280;3250;42.694;23.278;2023-02-28T04:21:09;95359.47;;;8.09;92.39
6435;BME280;3250;42.694;23.278;2023-02-28T04:23:34;95326.94;;;7.89;92.45
6435;BME280;3250;42.694;23.278;2023-02-28T04:26:00;95353.97;;;8.04;92.83
6435;BME280;3250;42.694;23.278;2023-02-28T04:28:25;95350.88;;;8.01;93.05
6435;BME280;3250;42.694;23.278;2023-02-28T04:31:02;95333.88;;;7.96;93.08
6435;BME280;3250;42.694;23.278;2023-02-28T04:33:28;95346.88;;;8.05;92.63
6435;BME280;3250;42.694;23.278;2023-02-28T04:36:03;95318.47;;;7.87;92.44
6435;BME280;3250;42.694;23.278;2023-02-28T04:38:32;95357.00;;;8.08;92.43
6435;BME280;3250;42.694;23.278;2023-02-28T04:40:59;95363.06;;;8.08;92.06
6435;BME280;3250;42.694;23.278;2023-02-28T04:43:28;95361.81;;;8.04;91.30
6435;BME280;3250;42.694;23.278;2023-02-28T04:45:55;95369.06;;;8.02;91.72
6435;BME280;3250;42.694;23.278;2023-02-28T04:48:25;95373.75;;;7.92;92.25
6435;BME280;3250;42.694;23.278;2023-02-28T04:50:52;95363.78;;;7.87;92.43
6435;BME280;3250;42.694;23.278;2023-02-28T04:53:18;95351.44;;;7.81;92.15
6435;BME280;3250;42.694;23.278;2023-02-28T04:55:44;95385.59;;;8.03;91.93
6435;BME280;3250;42.694;23.278;2023-02-28T04:58:10;95388.81;;;8.05;92.09
6435;BME280;3250;42.694;23.278;2023-02-28T05:00:35;95374.81;;;7.97;91.22
6435;BME280;3250;42.694;23.278;2023-02-28T05:03:01;95387.66;;;8.07;91.25
6435;BME280;3250;42.694;23.278;2023-02-28T05:05:26;95379.38;;;8.04;91.57
6435;BME280;3250;42.694;23.278;2023-02-28T05:07:52;95371.94;;;7.92;91.70
6435;BME280;3250;42.694;23.278;2023-02-28T05:10:18;95386.94;;;7.99;91.79
6435;BME280;3250;42.694;23.278;2023-02-28T05:12:44;95369.97;;;7.94;91.71
6435;BME280;3250;42.694;23.278;2023-02-28T05:15:13;95395.19;;;7.95;92.38
6435;BME280;3250;42.694;23.278;2023-02-28T05:17:39;95388.31;;;7.94;92.42
6435;BME280;3250;42.694;23.278;2023-02-28T05:20:05;95393.09;;;7.91;92.82
6435;BME280;3250;42.694;23.278;2023-02-28T05:22:31;95391.09;;;7.93;93.11
6435;BME280;3250;42.694;23.278;2023-02-28T05:24:57;95348.34;;;7.63;92.84
6435;BME280;3250;42.694;23.278;2023-02-28T05:27:22;95396.34;;;7.93;93.40
6435;BME280;3250;42.694;23.278;2023-02-28T05:29:48;95410.00;;;7.88;93.49
6435;BME280;3250;42.694;23.278;2023-02-28T05:32:14;95407.56;;;7.87;93.98
6435;BME280;3250;42.694;23.278;2023-02-28T05:34:41;95409.63;;;7.91;94.15
6435;BME280;3250;42.694;23.278;2023-02-28T05:37:11;95399.06;;;7.85;93.86
6435;BME280;3250;42.694;23.278;2023-02-28T05:39:37;95422.19;;;7.96;93.94
6435;BME280;3250;42.694;23.278;2023-02-28T05:42:04;95416.06;;;8.04;93.49
6435;BME280;3250;42.694;23.278;2023-02-28T05:44:29;95417.66;;;8.05;93.59
6435;BME280;3250;42.694;23.278;2023-02-28T05:46:55;95419.75;;;8.09;93.31
6435;BME280;3250;42.694;23.278;2023-02-28T05:49:20;95393.19;;;7.97;92.82
6435;BME280;3250;42.694;23.278;2023-02-28T05:51:45;95416.78;;;8.12;93.17
6435;BME280;3250;42.694;23.278;2023-02-28T05:54:11;95425.47;;;8.13;93.04
6435;BME280;3250;42.694;23.278;2023-02-28T05:56:36;95428.81;;;8.21;92.75
6435;BME280;3250;42.694;23.278;2023-02-28T05:59:05;95413.06;;;8.07;91.91
6435;BME280;3250;42.694;23.278;2023-02-28T06:01:33;95427.72;;;8.16;92.28
6435;BME280;3250;42.694;23.278;2023-02-28T06:04:00;95426.53;;;8.18;92.33
6435;BME280;3250;42.694;23.278;2023-02-28T06:06:26;95429.81;;;8.20;91.96
6435;BME280;3250;42.694;23.278;2023-02-28T06:08:52;95422.19;;;8.25;92.02
6435;BME280;3250;42.694;23.278;2023-02-28T06:11:17;95425.63;;;8.26;92.03
6435;BME280;3250;42.694;23.278;2023-02-28T06:13:44;95420.66;;;8.31;92.65
6435;BME280;3250;42.694;23.278;2023-02-28T06:16:10;95421.47;;;8.31;92.53
6435;BME280;3250;42.694;23.278;2023-02-28T06:18:36;95414.88;;;8.36;92.45
6435;BME280;3250;42.694;23.278;2023-02-28T06:21:02;95420.78;;;8.38;92.09
6435;BME280;3250;42.694;23.278;2023-02-28T06:23:27;95430.53;;;8.44;92.18
6435;BME280;3250;42.694;23.278;2023-02-28T06:25:53;95431.00;;;8.47;92.06
6435;BME280;3250;42.694;23.278;2023-02-28T06:28:18;95426.16;;;8.51;92.09
6435;BME280;3250;42.694;23.278;2023-02-28T06:30:44;95430.25;;;8.53;92.11
6435;BME280;3250;42.694;23.278;2023-02-28T06:33:09;95429.59;;;8.51;91.49
6435;BME280;3250;42.694;23.278;2023-02-28T06:35:35;95440.91;;;8.52;92.23
6435;BME280;3250;42.694;23.278;2023-02-28T06:38:00;95445.59;;;8.56;92.08
6435;BME280;3250;42.694;23.278;2023-02-28T06:40:26;95437.13;;;8.54;92.34
6435;BME280;3250;42.694;23.278;2023-02-28T06:42:51;95448.94;;;8.65;91.73
6435;BME280;3250;42.694;23.278;2023-02-28T06:45:17;95457.09;;;8.70;91.73
6435;BME280;3250;42.694;23.278;2023-02-28T06:47:42;95427.81;;;8.52;91.34
6435;BME280;3250;42.694;23.278;2023-02-28T06:50:12;95445.94;;;8.68;91.46
6435;BME280;3250;42.694;23.278;2023-02-28T06:52:38;95449.84;;;8.72;91.44
6435;BME280;3250;42.694;23.278;2023-02-28T06:55:05;95456.28;;;8.69;91.58
6435;BME280;3250;42.694;23.278;2023-02-28T06:57:32;95447.00;;;8.74;91.92
6435;BME280;3250;42.694;23.278;2023-02-28T06:59:59;95451.28;;;8.75;91.47
6435;BME280;3250;42.694;23.278;2023-02-28T07:02:25;95441.69;;;8.67;91.10
6435;BME280;3250;42.694;23.278;2023-02-28T07:04:51;95451.38;;;8.66;90.97
6435;BME280;3250;42.694;23.278;2023-02-28T07:07:16;95452.25;;;8.74;91.31
6435;BME280;3250;42.694;23.278;2023-02-28T07:09:41;95446.59;;;8.70;90.95
6435;BME280;3250;42.694;23.278;2023-02-28T07:12:07;95444.38;;;8.74;91.51
6435;BME280;3250;42.694;23.278;2023-02-28T07:14:32;95448.66;;;8.75;91.67
6435;BME280;3250;42.694;23.278;2023-02-28T07:16:57;95428.75;;;8.65;90.91
6435;BME280;3250;42.694;23.278;2023-02-28T07:19:24;95449.91;;;8.79;90.60
6435;BME280;3250;42.694;23.278;2023-02-28T07:21:49;95450.91;;;8.78;91.27
6435;BME280;3250;42.694;23.278;2023-02-28T07:24:15;95394.53;;;8.38;90.83
6435;BME280;3250;42.694;23.278;2023-02-28T07:26:43;95456.72;;;8.73;91.28
6435;BME280;3250;42.694;23.278;2023-02-28T07:29:08;95457.97;;;8.77;91.86
6435;BME280;3250;42.694;23.278;2023-02-28T07:31:33;95461.06;;;8.81;90.99
6435;BME280;3250;42.694;23.278;2023-02-28T07:33:59;95459.34;;;8.73;91.47
6435;BME280;3250;42.694;23.278;2023-02-28T07:36:24;95444.06;;;8.62;92.13
6435;BME280;3250;42.694;23.278;2023-02-28T07:38:50;95447.13;;;8.65;92.65
6435;BME280;3250;42.694;23.278;2023-02-28T07:41:16;95460.66;;;8.84;92.39
6435;BME280;3250;42.694;23.278;2023-02-28T07:43:42;95460.47;;;8.85;91.69
6435;BME280;3250;42.694;23.278;2023-02-28T07:46:12;95458.50;;;8.87;91.51
6435;BME280;3250;42.694;23.278;2023-02-28T07:48:40;95466.38;;;8.87;91.17
6435;BME280;3250;42.694;23.278;2023-02-28T07:51:06;95456.94;;;8.93;90.95
6435;BME280;3250;42.694;23.278;2023-02-28T07:53:31;95443.63;;;8.94;90.98
6435;BME280;3250;42.694;23.278;2023-02-28T07:55:58;95450.97;;;8.99;91.20
6435;BME280;3250;42.694;23.278;2023-02-28T07:58:24;95444.88;;;8.98;91.10
6435;BME280;3250;42.694;23.278;2023-02-28T08:00:50;95435.63;;;9.02;90.88
6435;BME280;3250;42.694;23.278;2023-02-28T08:03:17;95447.41;;;9.06;91.21
6435;BME280;3250;42.694;23.278;2023-02-28T08:05:43;95439.41;;;9.15;91.60
6435;BME280;3250;42.694;23.278;2023-02-28T08:08:08;95446.38;;;9.29;91.59
6435;BME280;3250;42.694;23.278;2023-02-28T08:10:34;95448.06;;;9.36;91.40
6435;BME280;3250;42.694;23.278;2023-02-28T08:13:00;95430.06;;;9.33;91.00
6435;BME280;3250;42.694;23.278;2023-02-28T08:15:25;95413.63;;;9.25;90.90
6435;BME280;3250;42.694;23.278;2023-02-28T08:17:51;95437.25;;;9.46;90.00
6435;BME280;3250;42.694;23.278;2023-02-28T08:20:16;95458.41;;;9.59;90.22
6435;BME280;3250;42.694;23.278;2023-02-28T08:22:42;95459.25;;;9.66;89.81
6435;BME280;3250;42.694;23.278;2023-02-28T08:25:08;95463.69;;;9.66;89.10
6435;BME280;3250;42.694;23.278;2023-02-28T08:27:34;95467.34;;;9.65;89.63
6435;BME280;3250;42.694;23.278;2023-02-28T08:30:00;95456.22;;;9.69;89.78
6435;BME280;3250;42.694;23.278;2023-02-28T08:32:25;95460.56;;;9.77;89.55
6435;BME280;3250;42.694;23.278;2023-02-28T08:34:51;95464.25;;;9.82;89.57
6435;BME280;3250;42.694;23.278;2023-02-28T08:37:16;95459.47;;;9.93;89.41
6435;BME280;3250;42.694;23.278;2023-02-28T08:39:41;95462.94;;;10.00;88.99
6435;BME280;3250;42.694;23.278;2023-02-28T08:42:07;95464.38;;;10.02;88.77
6435;BME280;3250;42.694;23.278;2023-02-28T08:44:32;95458.91;;;10.04;88.65
6435;BME280;3250;42.694;23.278;2023-02-28T08:46:58;95441.44;;;9.90;88.57
6435;BME280;3250;42.694;23.278;2023-02-28T08:49:23;95463.78;;;10.07;88.49
6435;BME280;3250;42.694;23.278;2023-02-28T08:51:49;95433.19;;;9.99;88.25
6435;BME280;3250;42.694;23.278;2023-02-28T08:54:14;95461.66;;;10.17;88.17
6435;BME280;3250;42.694;23.278;2023-02-28T08:56:47;95460.19;;;10.14;88.17
6435;BME280;3250;42.694;23.278;2023-02-28T08:59:12;95451.66;;;10.06;88.18
6435;BME280;3250;42.694;23.278;2023-02-28T09:01:39;95470.19;;;10.19;88.19
6435;BME280;3250;42.694;23.278;2023-02-28T09:04:06;95470.38;;;10.17;88.11
6435;BME280;3250;42.694;23.278;2023-02-28T09:06:34;95468.28;;;10.13;87.97
6435;BME280;3250;42.694;23.278;2023-02-28T09:09:00;95460.59;;;10.11;88.27
6435;BME280;3250;42.694;23.278;2023-02-28T09:11:27;95462.03;;;10.14;88.07
6435;BME280;3250;42.694;23.278;2023-02-28T09:13:53;95467.09;;;10.15;88.09
6435;BME280;3250;42.694;23.278;2023-02-28T09:16:20;95461.50;;;10.18;88.13
6435;BME280;3250;42.694;23.278;2023-02-28T09:18:46;95465.75;;;10.19;87.95
6435;BME280;3250;42.694;23.278;2023-02-28T09:21:14;95460.50;;;10.26;88.29
6435;BME280;3250;42.694;23.278;2023-02-28T09:23:44;95454.06;;;10.29;87.74
6435;BME280;3250;42.694;23.278;2023-02-28T09:26:22;95460.50;;;10.26;87.58
6435;BME280;3250;42.694;23.278;2023-02-28T09:28:48;95432.66;;;10.10;87.81
6435;BME280;3250;42.694;23.278;2023-02-28T09:31:17;95452.00;;;10.24;88.06
6435;BME280;3250;42.694;23.278;2023-02-28T09:33:46;95456.06;;;10.27;87.77
6435;BME280;3250;42.694;23.278;2023-02-28T09:36:12;95455.66;;;10.30;88.00
6435;BME280;3250;42.694;23.278;2023-02-28T09:38:37;95454.72;;;10.37;87.60
6435;BME280;3250;42.694;23.278;2023-02-28T09:41:10;95453.97;;;10.50;88.19
6435;BME280;3250;42.694;23.278;2023-02-28T09:43:40;95453.78;;;10.58;88.16
6435;BME280;3250;42.694;23.278;2023-02-28T09:46:46;95448.97;;;10.68;87.33
6435;BME280;3250;42.694;23.278;2023-02-28T09:49:19;95453.06;;;10.77;86.69
6435;BME280;3250;42.694;23.278;2023-02-28T09:51:51;95456.16;;;10.87;86.24
6435;BME280;3250;42.694;23.278;2023-02-28T09:54:26;95453.13;;;10.97;86.54
6435;BME280;3250;42.694;23.278;2023-02-28T09:57:04;95424.56;;;10.94;86.31
6435;BME280;3250;42.694;23.278;2023-02-28T10:00:24;95444.06;;;11.19;85.68
6435;BME280;3250;42.694;23.278;2023-02-28T10:03:04;95435.78;;;11.29;85.68
6435;BME280;3250;42.694;23.278;2023-02-28T10:08:31;95424.03;;;11.38;85.79
6435;BME280;3250;42.694;23.278;2023-02-28T10:11:01;95415.09;;;11.46;85.70
6435;BME280;3250;42.694;23.278;2023-02-28T10:16:24;95404.13;;;11.68;85.35
6435;BME280;3250;42.694;23.278;2023-02-28T10:21:35;95414.50;;;11.96;84.50
6435;BME280;3250;42.694;23.278;2023-02-28T10:24:10;95417.34;;;12.08;82.48
6435;BME280;3250;42.694;23.278;2023-02-28T10:26:38;95415.72;;;12.07;81.97
6435;BME280;3250;42.694;23.278;2023-02-28T10:29:04;95406.34;;;12.11;81.62
6435;BME280;3250;42.694;23.278;2023-02-28T10:31:29;95402.09;;;12.17;81.80
6435;BME280;3250;42.694;23.278;2023-02-28T10:33:55;95396.38;;;12.26;81.78
6435;BME280;3250;42.694;23.278;2023-02-28T10:36:21;95393.31;;;12.29;81.16
6435;BME280;3250;42.694;23.278;2023-02-28T10:38:47;95398.03;;;12.14;80.05
6435;BME280;3250;42.694;23.278;2023-02-28T10:41:26;95394.84;;;11.79;80.67
6435;BME280;3250;42.694;23.278;2023-02-28T10:44:13;95376.97;;;11.61;83.20
6435;BME280;3250;42.694;23.278;2023-02-28T10:46:40;95379.22;;;11.64;83.08
6435;BME280;3250;42.694;23.278;2023-02-28T10:49:14;95376.59;;;11.84;81.74
6435;BME280;3250;42.694;23.278;2023-02-28T10:51:41;95366.63;;;11.93;79.99
6435;BME280;3250;42.694;23.278;2023-02-28T10:54:16;95329.69;;;11.93;80.13
6435;BME280;3250;42.694;23.278;2023-02-28T10:56:42;95367.91;;;12.41;78.53
6435;BME280;3250;42.694;23.278;2023-02-28T11:01:43;95337.03;;;12.42;78.26
6435;BME280;3250;42.694;23.278;2023-02-28T11:04:18;95365.41;;;12.53;77.81
6435;BME280;3250;42.694;23.278;2023-02-28T11:06:45;95353.28;;;12.39;77.92
6435;BME280;3250;42.694;23.278;2023-02-28T11:09:24;95357.50;;;12.46;78.33
6435;BME280;3250;42.694;23.278;2023-02-28T11:11:52;95347.75;;;12.47;77.62
6435;BME280;3250;42.694;23.278;2023-02-28T11:14:24;95354.63;;;12.55;75.99
6435;BME280;3250;42.694;23.278;2023-02-28T11:16:51;95347.94;;;12.45;76.64
6435;BME280;3250;42.694;23.278;2023-02-28T11:19:25;95314.22;;;12.47;76.58
6435;BME280;3250;42.694;23.278;2023-02-28T11:22:02;95345.47;;;12.57;75.79
6435;BME280;3250;42.694;23.278;2023-02-28T11:26:56;95340.31;;;12.31;77.48
6435;BME280;3250;42.694;23.278;2023-02-28T11:29:31;95334.41;;;12.29;77.74
6435;BME280;3250;42.694;23.278;2023-02-28T11:32:17;95339.34;;;12.19;77.23
6435;BME280;3250;42.694;23.278;2023-02-28T11:34:44;95333.59;;;12.28;77.40
6435;BME280;3250;42.694;23.278;2023-02-28T11:37:16;95328.13;;;12.36;76.98
6435;BME280;3250;42.694;23.278;2023-02-28T11:39:44;95330.53;;;12.38;77.24
6435;BME280;3250;42.694;23.278;2023-02-28T11:58:03;95326.97;;;12.57;76.56
6435;BME280;3250;42.694;23.278;2023-02-28T12:03:27;95321.84;;;12.69;76.09
6435;BME280;3250;42.694;23.278;2023-02-28T12:11:58;95331.97;;;12.34;76.07
6435;BME280;3250;42.694;23.278;2023-02-28T12:28:09;95322.69;;;12.25;75.83
6435;BME280;3250;42.694;23.278;2023-02-28T12:30:41;95319.81;;;12.26;76.00
6435;BME280;3250;42.694;23.278;2023-02-28T12:33:16;95323.88;;;12.22;76.18
6435;BME280;3250;42.694;23.278;2023-02-28T12:35:49;95313.09;;;12.30;76.34
6435;BME280;3250;42.694;23.278;2023-02-28T12:38:22;95307.31;;;12.46;76.03
6435;BME280;3250;42.694;23.278;2023-02-28T12:41:00;95301.13;;;12.66;74.60
6435;BME280;3250;42.694;23.278;2023-02-28T12:43:37;95302.09;;;12.78;73.67
6435;BME280;3250;42.694;23.278;2023-02-28T12:46:18;95312.81;;;12.83;73.61
6435;BME280;3250;42.694;23.278;2023-02-28T12:48:57;95311.28;;;12.69;74.03
6435;BME280;3250;42.694;23.278;2023-02-28T12:51:25;95314.03;;;12.49;74.08
6435;BME280;3250;42.694;23.278;2023-02-28T12:56:45;95303.50;;;12.42;74.90
6435;BME280;3250;42.694;23.278;2023-02-28T13:09:57;95299.28;;;12.28;74.35
6435;BME280;3250;42.694;23.278;2023-02-28T13:12:25;95296.63;;;12.35;73.87
6435;BME280;3250;42.694;23.278;2023-02-28T13:15:05;95303.63;;;12.16;74.46
6435;BME280;3250;42.694;23.278;2023-02-28T13:17:37;95296.72;;;12.15;74.78
6435;BME280;3250;42.694;23.278;2023-02-28T13:20:04;95301.22;;;12.08;74.89
6435;BME280;3250;42.694;23.278;2023-02-28T13:22:52;95294.00;;;11.84;75.78
6435;BME280;3250;42.694;23.278;2023-02-28T13:27:46;95293.38;;;11.82;75.24
6435;BME280;3250;42.694;23.278;2023-02-28T13:33:33;95280.59;;;11.72;77.19
6435;BME280;3250;42.694;23.278;2023-02-28T13:38:49;95301.28;;;11.88;74.70
6435;BME280;3250;42.694;23.278;2023-02-28T13:44:14;95279.53;;;11.99;75.65
6435;BME280;3250;42.694;23.278;2023-02-28T14:06:25;95268.91;;;12.13;75.42
6435;BME280;3250;42.694;23.278;2023-02-28T14:11:39;95271.75;;;12.11;75.36
6435;BME280;3250;42.694;23.278;2023-02-28T14:14:08;95272.00;;;12.09;74.76
6435;BME280;3250;42.694;23.278;2023-02-28T14:16:44;95282.78;;;11.95;75.21
6435;BME280;3250;42.694;23.278;2023-02-28T14:19:27;95273.91;;;11.83;75.71
6435;BME280;3250;42.694;23.278;2023-02-28T14:33:13;95277.34;;;11.70;76.58
6435;BME280;3250;42.694;23.278;2023-02-28T14:38:19;95272.72;;;11.52;77.65
6435;BME280;3250;42.694;23.278;2023-02-28T14:40:47;95273.13;;;11.56;77.69
6435;BME280;3250;42.694;23.278;2023-02-28T14:43:33;95270.88;;;11.59;77.88
6435;BME280;3250;42.694;23.278;2023-02-28T14:46:00;95276.75;;;11.61;77.87
6435;BME280;3250;42.694;23.278;2023-02-28T14:48:27;95273.72;;;11.64;77.91
6435;BME280;3250;42.694;23.278;2023-02-28T14:50:55;95262.81;;;11.34;78.62
6435;BME280;3250;42.694;23.278;2023-02-28T14:53:24;95282.06;;;11.42;78.83
6435;BME280;3250;42.694;23.278;2023-02-28T14:55:50;95281.88;;;11.37;79.23
6435;BME280;3250;42.694;23.278;2023-02-28T14:58:29;95251.28;;;11.16;79.86
6435;BME280;3250;42.694;23.278;2023-02-28T15:01:00;95274.59;;;11.19;80.15
6435;BME280;3250;42.694;23.278;2023-02-28T15:03:39;95281.72;;;11.05;80.73
6435;BME280;3250;42.694;23.278;2023-02-28T15:06:13;95270.75;;;11.08;81.05
6435;BME280;3250;42.694;23.278;2023-02-28T15:08:39;95267.91;;;11.16;80.60
6435;BME280;3250;42.694;23.278;2023-02-28T15:13:44;95270.97;;;11.07;81.23
6435;BME280;3250;42.694;23.278;2023-02-28T15:16:18;95262.47;;;10.98;81.04
6435;BME280;3250;42.694;23.278;2023-02-28T15:18:46;95267.13;;;10.89;81.57
6435;BME280;3250;42.694;23.278;2023-02-28T15:21:41;95269.13;;;11.01;81.29
6435;BME280;3250;42.694;23.278;2023-02-28T15:24:16;95270.13;;;11.00;81.15
6435;BME280;3250;42.694;23.278;2023-02-28T15:26:51;95264.69;;;11.01;80.90
6435;BME280;3250;42.694;23.278;2023-02-28T15:29:26;95261.03;;;11.02;80.93
6435;BME280;3250;42.694;23.278;2023-02-28T15:32:01;95283.72;;;11.10;80.68
6435;BME280;3250;42.694;23.278;2023-02-28T15:36:55;95288.19;;;10.89;81.41
6435;BME280;3250;42.694;23.278;2023-02-28T15:39:26;95256.56;;;10.70;81.44
6435;BME280;3250;42.694;23.278;2023-02-28T15:42:09;95234.09;;;10.61;81.27
6435;BME280;3250;42.694;23.278;2023-02-28T15:44:35;95293.84;;;11.00;81.08
6435;BME280;3250;42.694;23.278;2023-02-28T15:47:04;95281.50;;;11.00;81.35
6435;BME280;3250;42.694;23.278;2023-02-28T15:49:39;95277.66;;;11.03;81.31
6435;BME280;3250;42.694;23.278;2023-02-28T15:52:15;95286.38;;;11.03;81.26
6435;BME280;3250;42.694;23.278;2023-02-28T15:54:43;95290.22;;;11.01;81.18
6435;BME280;3250;42.694;23.278;2023-02-28T15:57:15;95279.47;;;10.95;81.36
6435;BME280;3250;42.694;23.278;2023-02-28T15:59:50;95286.16;;;10.91;81.81
6435;BME280;3250;42.694;23.278;2023-02-28T16:02:22;95284.53;;;10.84;81.47
6435;BME280;3250;42.694;23.278;2023-02-28T16:07:37;95284.50;;;10.64;82.89
6435;BME280;3250;42.694;23.278;2023-02-28T16:10:04;95309.25;;;10.76;83.23